Sw Julia I — 3EDT2 — position and weather

sailwx.info

Track history (hours):
 
Tides and Currents Weather Stations Pressure Air Temp Water Temp Dewpoint Dewpoint Depression Visibility Wind Speed Wind Dir Waves Ship Positions

Sw Julia I

Last reported at 2018-Feb-15 16:56 UTC. Time now 2018-Feb-20 05:35 UTC.
Position N 25°25' W 079°34'.

Length 176 m; draft 7 m.

Type: Ship. MMSI: 374125000.

Date/timePositionNaut miles runAvg speedWind from/ knotsBaromVisibWave heightAir tempDewpointWater temp
2018-Feb-15 16:56N 25°25' W 079°34'512.3
2018-Feb-15 16:29N 25°30' W 079°33'612.1
2018-Feb-15 16:00N 25°36' W 079°33'612.1
2018-Feb-15 15:30N 25°42' W 079°31'612.3
2018-Feb-15 15:01N 25°48' W 079°30'612.4
2018-Feb-15 14:31N 25°54' W 079°28'812.5
2018-Feb-15 13:53N 26°01' W 079°27'512.5
2018-Feb-15 13:30N 26°06' W 079°26'612.5
2018-Feb-15 13:00N 26°12' W 079°24'  
2018-Feb-12 19:23N 39°08' W 073°55'1913.2
2018-Feb-12 17:54N 39°28' W 073°52'512.7
2018-Feb-12 17:30N 39°33' W 073°51'712.9
2018-Feb-12 16:59N 39°40' W 073°50'913.1
2018-Feb-12 16:16N 39°49' W 073°49'513.1
2018-Feb-12 15:55N 39°53' W 073°49'1313.0
2018-Feb-12 14:55N 40°06' W 073°49'1010.2
2018-Feb-12 13:55N 40°17' W 073°49'4 9.8
2018-Feb-12 13:28N 40°21' W 073°48'5 9.8
2018-Feb-12 13:00N 40°24' W 073°44'5 9.6
2018-Feb-12 12:29N 40°28' W 073°40'1 1.9
2018-Feb-12 11:46N 40°29' W 073°39'0 0.1
2018-Feb-12 10:26N 40°29' W 073°39'0 0.1
2018-Feb-12 09:35N 40°29' W 073°39'0 0.1
2018-Feb-12 09:14N 40°29' W 073°39'0 0.0
2018-Feb-12 08:56N 40°29' W 073°39'0 0.0
2018-Feb-12 08:29N 40°29' W 073°39'0 0.0
2018-Feb-12 07:59N 40°29' W 073°39'0 0.0
2018-Feb-12 07:17N 40°29' W 073°39'0 0.0
2018-Feb-12 06:50N 40°29' W 073°39'0 0.0
2018-Feb-12 05:14N 40°29' W 073°39'0 0.0
2018-Feb-11 23:45N 40°29' W 073°38'7 7.5
2018-Feb-11 22:46N 40°27' W 073°48'2 8.3
2018-Feb-11 22:29N 40°27' W 073°51'5 9.0
2018-Feb-11 21:58N 40°30' W 073°56'4 9.2
2018-Feb-11 21:30N 40°32' W 074°01'611.6
2018-Feb-11 21:00N 40°37' W 074°03'1 1.6
2018-Feb-11 20:28N 40°38' W 074°04'0 0.3
2018-Feb-11 20:00N 40°38' W 074°04'0 0.1
2018-Feb-11 19:30N 40°38' W 074°04'0 0.3
2018-Feb-11 19:00N 40°38' W 074°04'0 0.0
2018-Feb-11 18:30N 40°38' W 074°04'0 0.0
2018-Feb-11 18:01N 40°38' W 074°04'0 0.0
2018-Feb-11 17:31N 40°38' W 074°04'0 0.0
2018-Feb-11 17:01N 40°38' W 074°04'0 0.0
2018-Feb-11 16:31N 40°38' W 074°04'0 0.0
2018-Feb-11 15:59N 40°38' W 074°04'0 0.0
2018-Feb-11 15:29N 40°38' W 074°04'0 0.0
2018-Feb-11 15:01N 40°38' W 074°04'0 0.0
2018-Feb-11 14:31N 40°38' W 074°04'0 0.0
2018-Feb-11 14:01N 40°38' W 074°04'0 0.0
2018-Feb-11 13:30N 40°38' W 074°04'0 0.1
2018-Feb-11 13:00N 40°38' W 074°04'0 0.2
2018-Feb-11 12:30N 40°38' W 074°04'0 0.3
2018-Feb-11 12:01N 40°38' W 074°04'0 0.0
2018-Feb-11 11:31N 40°38' W 074°04'0 0.0
2018-Feb-11 10:59N 40°38' W 074°04'0 0.0
2018-Feb-11 10:26N 40°38' W 074°04'0 0.0
2018-Feb-11 10:01N 40°38' W 074°04'0 0.0
2018-Feb-11 09:29N 40°38' W 074°04'0 0.0
2018-Feb-11 08:58N 40°38' W 074°04'0 0.0
2018-Feb-11 08:28N 40°38' W 074°04'0 0.0
2018-Feb-11 07:58N 40°38' W 074°04'0 0.1
2018-Feb-11 07:28N 40°38' W 074°04'0 0.3
2018-Feb-11 07:01N 40°38' W 074°04'1 1.8
2018-Feb-11 06:31N 40°37' W 074°03'5 9.0
2018-Feb-11 06:01N 40°33' W 074°01'612.4
2018-Feb-11 05:31N 40°29' W 073°55'5 9.6
2018-Feb-11 05:00N 40°27' W 073°49'5 9.2
2018-Feb-11 04:30N 40°27' W 073°43'12111.0
2018-Feb-10 17:26N 41°27' W 071°23'510.6
2018-Feb-10 17:00N 41°31' W 071°21'713.5
2018-Feb-10 16:30N 41°37' W 071°18'612.5
2018-Feb-10 16:00N 41°43' W 071°21'4 8.7
2018-Feb-10 15:30N 41°47' W 071°23'1 0.0
2018-Feb-09 22:24N 41°47' W 071°22'0 0.0
2018-Feb-09 01:30N 41°47' W 071°22'7 6.9
2018-Feb-09 00:30N 41°40' W 071°19'  
Track history (hours):
 
Tides and Currents Weather Stations Pressure Air Temp Water Temp Dewpoint Dewpoint Depression Visibility Wind Speed Wind Dir Waves Ship Positions

Sw Julia I

Last reported at 2018-Feb-15 16:56 UTC. Time now 2018-Feb-20 05:35 UTC.
Position N 25°25' W 079°34'.

Length 176 m; draft 7 m.

Type: Ship. MMSI: 374125000.

Date/timePositionNaut miles runAvg speedWind from/ knotsBaromVisibWave heightAir tempDewpointWater temp
2018-Feb-15 16:56N 25°25' W 079°34'512.3
2018-Feb-15 16:29N 25°30' W 079°33'612.1
2018-Feb-15 16:00N 25°36' W 079°33'612.1
2018-Feb-15 15:30N 25°42' W 079°31'612.3
2018-Feb-15 15:01N 25°48' W 079°30'612.4
2018-Feb-15 14:31N 25°54' W 079°28'812.5
2018-Feb-15 13:53N 26°01' W 079°27'512.5
2018-Feb-15 13:30N 26°06' W 079°26'612.5
2018-Feb-15 13:00N 26°12' W 079°24'  
2018-Feb-12 19:23N 39°08' W 073°55'1913.2
2018-Feb-12 17:54N 39°28' W 073°52'512.7
2018-Feb-12 17:30N 39°33' W 073°51'712.9
2018-Feb-12 16:59N 39°40' W 073°50'913.1
2018-Feb-12 16:16N 39°49' W 073°49'513.1
2018-Feb-12 15:55N 39°53' W 073°49'1313.0
2018-Feb-12 14:55N 40°06' W 073°49'1010.2
2018-Feb-12 13:55N 40°17' W 073°49'4 9.8
2018-Feb-12 13:28N 40°21' W 073°48'5 9.8
2018-Feb-12 13:00N 40°24' W 073°44'5 9.6
2018-Feb-12 12:29N 40°28' W 073°40'1 1.9
2018-Feb-12 11:46N 40°29' W 073°39'0 0.1
2018-Feb-12 10:26N 40°29' W 073°39'0 0.1
2018-Feb-12 09:35N 40°29' W 073°39'0 0.1
2018-Feb-12 09:14N 40°29' W 073°39'0 0.0
2018-Feb-12 08:56N 40°29' W 073°39'0 0.0
2018-Feb-12 08:29N 40°29' W 073°39'0 0.0
2018-Feb-12 07:59N 40°29' W 073°39'0 0.0
2018-Feb-12 07:17N 40°29' W 073°39'0 0.0
2018-Feb-12 06:50N 40°29' W 073°39'0 0.0
2018-Feb-12 05:14N 40°29' W 073°39'0 0.0
2018-Feb-11 23:45N 40°29' W 073°38'7 7.5
2018-Feb-11 22:46N 40°27' W 073°48'2 8.3
2018-Feb-11 22:29N 40°27' W 073°51'5 9.0
2018-Feb-11 21:58N 40°30' W 073°56'4 9.2
2018-Feb-11 21:30N 40°32' W 074°01'611.6
2018-Feb-11 21:00N 40°37' W 074°03'1 1.6
2018-Feb-11 20:28N 40°38' W 074°04'0 0.3
2018-Feb-11 20:00N 40°38' W 074°04'0 0.1
2018-Feb-11 19:30N 40°38' W 074°04'0 0.3
2018-Feb-11 19:00N 40°38' W 074°04'0 0.0
2018-Feb-11 18:30N 40°38' W 074°04'0 0.0
2018-Feb-11 18:01N 40°38' W 074°04'0 0.0
2018-Feb-11 17:31N 40°38' W 074°04'0 0.0
2018-Feb-11 17:01N 40°38' W 074°04'0 0.0
2018-Feb-11 16:31N 40°38' W 074°04'0 0.0
2018-Feb-11 15:59N 40°38' W 074°04'0 0.0
2018-Feb-11 15:29N 40°38' W 074°04'0 0.0
2018-Feb-11 15:01N 40°38' W 074°04'0 0.0
2018-Feb-11 14:31N 40°38' W 074°04'0 0.0
2018-Feb-11 14:01N 40°38' W 074°04'0 0.0
2018-Feb-11 13:30N 40°38' W 074°04'0 0.1
2018-Feb-11 13:00N 40°38' W 074°04'0 0.2
2018-Feb-11 12:30N 40°38' W 074°04'0 0.3
2018-Feb-11 12:01N 40°38' W 074°04'0 0.0
2018-Feb-11 11:31N 40°38' W 074°04'0 0.0
2018-Feb-11 10:59N 40°38' W 074°04'0 0.0
2018-Feb-11 10:26N 40°38' W 074°04'0 0.0
2018-Feb-11 10:01N 40°38' W 074°04'0 0.0
2018-Feb-11 09:29N 40°38' W 074°04'0 0.0
2018-Feb-11 08:58N 40°38' W 074°04'0 0.0
2018-Feb-11 08:28N 40°38' W 074°04'0 0.0
2018-Feb-11 07:58N 40°38' W 074°04'0 0.1
2018-Feb-11 07:28N 40°38' W 074°04'0 0.3
2018-Feb-11 07:01N 40°38' W 074°04'1 1.8
2018-Feb-11 06:31N 40°37' W 074°03'5 9.0
2018-Feb-11 06:01N 40°33' W 074°01'612.4
2018-Feb-11 05:31N 40°29' W 073°55'5 9.6
2018-Feb-11 05:00N 40°27' W 073°49'5 9.2
2018-Feb-11 04:30N 40°27' W 073°43'12111.0
2018-Feb-10 17:26N 41°27' W 071°23'510.6
2018-Feb-10 17:00N 41°31' W 071°21'713.5
2018-Feb-10 16:30N 41°37' W 071°18'612.5
2018-Feb-10 16:00N 41°43' W 071°21'4 8.7
2018-Feb-10 15:30N 41°47' W 071°23'1 0.0
2018-Feb-09 22:24N 41°47' W 071°22'0 0.0
2018-Feb-09 01:30N 41°47' W 071°22'7 6.9
2018-Feb-09 00:30N 41°40' W 071°19'  

Dump ship's entire track history